createdAt,value
2022-09-17T00:02:38.791Z,5.68
2022-09-17T00:05:24.708Z,3.95
2022-09-17T00:08:14.685Z,6.25
2022-09-17T00:11:08.248Z,5.72
2022-09-17T00:13:54.709Z,3.63
2022-09-17T00:16:42.551Z,4.22
2022-09-17T00:19:27.789Z,5.20
2022-09-17T00:22:13.338Z,5.68
2022-09-17T00:24:58.747Z,7.47
2022-09-17T00:27:44.239Z,7.93
2022-09-17T00:30:29.851Z,5.30
2022-09-17T00:33:17.667Z,3.50
2022-09-17T00:36:05.001Z,7.90
2022-09-17T00:38:51.706Z,3.50
2022-09-17T00:41:38.389Z,4.78
2022-09-17T00:44:44.498Z,7.00
2022-09-17T00:47:36.473Z,3.20
2022-09-17T00:50:23.633Z,7.45
2022-09-17T00:53:15.614Z,5.80
2022-09-17T00:56:22.779Z,5.30
2022-09-17T00:59:08.755Z,4.20
2022-09-17T01:01:54.397Z,4.82
2022-09-17T01:04:39.782Z,3.10
2022-09-17T01:07:31.103Z,7.45
2022-09-17T01:10:38.125Z,1.35
2022-09-17T01:13:42.040Z,6.00
2022-09-17T01:16:39.786Z,3.63
2022-09-17T01:20:02.661Z,6.43
2022-09-17T01:23:09.014Z,3.13
2022-09-17T01:26:13.001Z,5.72
2022-09-17T01:29:26.288Z,6.90
2022-09-17T01:32:14.195Z,3.17
2022-09-17T01:35:17.576Z,7.10
2022-09-17T01:38:20.031Z,5.15
2022-09-17T01:41:18.279Z,4.55
2022-09-17T01:44:06.685Z,5.88
2022-09-17T01:47:03.214Z,6.78
2022-09-17T01:49:52.621Z,5.70
2022-09-17T01:52:41.722Z,4.18
2022-09-17T01:55:32.491Z,8.38
2022-09-17T01:58:41.621Z,4.65
2022-09-17T02:01:30.238Z,8.40
2022-09-17T02:04:23.499Z,5.13
2022-09-17T02:07:20.546Z,4.53
2022-09-17T02:10:13.775Z,6.60
2022-09-17T02:13:12.728Z,7.35
2022-09-17T02:16:06.446Z,9.15
2022-09-17T02:22:00.005Z,4.85
2022-09-17T02:24:49.758Z,5.53
2022-09-17T02:27:52.455Z,5.00
2022-09-17T02:30:38.254Z,5.28
2022-09-17T02:33:24.594Z,6.53
2022-09-17T02:36:09.867Z,7.40
2022-09-17T02:39:01.540Z,8.88
2022-09-17T02:42:21.895Z,6.85
2022-09-17T02:45:25.943Z,8.18
2022-09-17T02:48:24.496Z,6.13
2022-09-17T02:51:10.022Z,6.75
2022-09-17T02:54:05.250Z,5.68
2022-09-17T02:56:59.577Z,13.95
2022-09-17T03:00:01.542Z,4.95
2022-09-17T03:03:08.832Z,9.75
2022-09-17T03:05:54.935Z,7.13
2022-09-17T03:08:41.962Z,4.85
2022-09-17T03:11:27.531Z,4.53
2022-09-17T03:14:12.812Z,6.60
2022-09-17T03:16:58.370Z,6.35
2022-09-17T03:19:44.223Z,5.95
2022-09-17T03:22:29.415Z,5.15
2022-09-17T03:25:14.849Z,7.63
2022-09-17T03:28:00.316Z,3.40
2022-09-17T03:30:46.583Z,8.43
2022-09-17T03:33:33.195Z,10.20
2022-09-17T03:36:18.676Z,5.32
2022-09-17T03:39:04.646Z,6.15
2022-09-17T03:41:50.242Z,5.68
2022-09-17T03:44:35.404Z,4.75
2022-09-17T03:47:21.042Z,12.45
2022-09-17T03:50:07.293Z,5.32
2022-09-17T03:52:52.646Z,6.20
2022-09-17T03:55:41.458Z,4.40
2022-09-17T03:58:27.306Z,9.10
2022-09-17T04:01:13.048Z,6.32
2022-09-17T04:03:58.485Z,10.10
2022-09-17T04:06:43.824Z,5.25
2022-09-17T04:09:30.001Z,4.18
2022-09-17T04:12:15.614Z,6.03
2022-09-17T04:15:00.798Z,5.20
2022-09-17T04:17:46.237Z,6.45
2022-09-17T04:20:31.968Z,3.88
2022-09-17T04:23:17.760Z,5.90
2022-09-17T04:26:03.401Z,8.18
2022-09-17T04:28:48.677Z,3.47
2022-09-17T04:31:34.329Z,7.05
2022-09-17T04:34:20.214Z,7.35
2022-09-17T04:37:05.502Z,5.45
2022-09-17T04:39:51.367Z,5.30
2022-09-17T04:42:36.584Z,5.05
2022-09-17T04:45:22.709Z,5.25
2022-09-17T04:48:08.071Z,4.63
2022-09-17T04:50:53.796Z,5.50
2022-09-17T04:53:39.351Z,8.10
2022-09-17T04:56:24.928Z,9.43
2022-09-17T04:59:10.502Z,7.47
2022-09-17T05:01:55.961Z,5.47
2022-09-17T05:04:41.363Z,4.07
2022-09-17T05:07:26.968Z,8.35
2022-09-17T05:10:15.080Z,5.90
2022-09-17T05:13:00.639Z,10.10
2022-09-17T05:15:45.921Z,7.45
2022-09-17T05:18:31.557Z,8.80
2022-09-17T05:21:18.425Z,4.10
2022-09-17T05:24:04.068Z,4.22
2022-09-17T05:26:49.734Z,6.93
2022-09-17T05:29:36.062Z,7.95
2022-09-17T05:32:21.441Z,3.33
2022-09-17T05:35:07.894Z,4.75
2022-09-17T05:38:00.899Z,2.75
2022-09-17T05:40:46.623Z,4.40
2022-09-17T05:43:32.722Z,7.45
2022-09-17T05:46:18.340Z,3.67
2022-09-17T05:49:05.057Z,4.35
2022-09-17T05:51:51.872Z,6.18
2022-09-17T05:54:37.338Z,6.95
2022-09-17T05:57:22.937Z,5.72
2022-09-17T06:00:09.476Z,3.67
2022-09-17T06:02:56.207Z,3.95
2022-09-17T06:05:42.494Z,7.68
2022-09-17T06:08:28.963Z,4.57
2022-09-17T06:11:14.275Z,4.60
2022-09-17T06:13:59.892Z,4.57
2022-09-17T06:16:45.620Z,4.53
2022-09-17T06:19:31.056Z,4.53
2022-09-17T06:22:20.041Z,6.93
2022-09-17T06:25:06.263Z,2.97
2022-09-17T06:27:51.502Z,6.07
2022-09-17T06:30:37.125Z,9.13
2022-09-17T06:33:23.401Z,3.63
2022-09-17T06:36:14.064Z,5.53
2022-09-17T06:39:00.378Z,4.90
2022-09-17T06:41:46.218Z,5.78
2022-09-17T06:44:31.464Z,6.00
2022-09-17T06:47:17.211Z,5.25
2022-09-17T06:50:02.723Z,5.82
2022-09-17T06:52:50.035Z,5.10
2022-09-17T06:55:35.209Z,4.30
2022-09-17T06:58:20.426Z,4.43
2022-09-17T07:01:06.591Z,6.88
2022-09-17T07:03:52.101Z,9.60
2022-09-17T07:06:37.365Z,6.22
2022-09-17T07:09:23.245Z,4.43
2022-09-17T07:12:09.781Z,6.28
2022-09-17T07:14:55.231Z,5.13
2022-09-17T07:17:40.670Z,3.78
2022-09-17T07:20:26.234Z,4.05
2022-09-17T07:23:11.717Z,6.93
2022-09-17T07:26:06.634Z,5.50
2022-09-17T07:28:51.845Z,5.53
2022-09-17T07:31:37.556Z,5.43
2022-09-17T07:34:23.070Z,3.88
2022-09-17T07:37:09.083Z,4.70
2022-09-17T07:39:54.663Z,4.90
2022-09-17T07:42:40.071Z,7.35
2022-09-17T07:45:25.435Z,5.20
2022-09-17T07:48:10.753Z,4.25
2022-09-17T07:50:56.668Z,6.07
2022-09-17T07:53:42.362Z,8.68
2022-09-17T07:56:28.509Z,4.70
2022-09-17T07:59:13.917Z,6.07
2022-09-17T08:01:59.747Z,5.53
2022-09-17T08:04:45.491Z,6.45
2022-09-17T08:07:31.042Z,7.75
2022-09-17T08:10:16.548Z,5.38
2022-09-17T08:13:02.089Z,6.53
2022-09-17T08:15:47.545Z,6.43
2022-09-17T08:18:33.743Z,4.78
2022-09-17T08:21:19.022Z,5.03
2022-09-17T08:24:04.942Z,6.75
2022-09-17T08:26:50.434Z,6.32
2022-09-17T08:29:35.620Z,6.07
2022-09-17T08:32:21.379Z,4.55
2022-09-17T08:35:07.483Z,6.57
2022-09-17T08:37:55.830Z,7.47
2022-09-17T08:40:54.484Z,4.13
2022-09-17T08:44:02.568Z,8.02
2022-09-17T08:46:59.465Z,4.72
2022-09-17T08:50:00.578Z,4.55
2022-09-17T08:53:24.299Z,7.78
2022-09-17T08:56:16.260Z,7.60
2022-09-17T08:59:08.312Z,2.88
2022-09-17T09:02:04.695Z,4.30
2022-09-17T09:05:02.615Z,2.60
2022-09-17T09:07:51.739Z,7.78
2022-09-17T09:10:55.780Z,4.70
2022-09-17T09:13:44.579Z,4.65
2022-09-17T09:16:34.386Z,5.70
2022-09-17T09:19:25.825Z,5.25
2022-09-17T09:22:44.613Z,3.15
2022-09-17T09:25:39.741Z,5.20
2022-09-17T09:28:53.019Z,3.63
2022-09-17T09:34:28.798Z,3.72
2022-09-17T09:37:31.583Z,4.18
2022-09-17T09:43:20.601Z,4.82
2022-09-17T09:46:31.241Z,2.92
2022-09-17T09:49:31.845Z,6.00
2022-09-17T09:52:35.982Z,5.20
2022-09-17T09:56:08.971Z,2.65
2022-09-17T09:58:54.214Z,4.22
2022-09-17T10:01:42.985Z,4.70
2022-09-17T10:04:30.263Z,3.92
2022-09-17T10:07:15.476Z,3.15
2022-09-17T10:10:10.421Z,2.65
2022-09-17T10:13:06.808Z,2.40
2022-09-17T10:15:53.010Z,3.70
2022-09-17T10:18:38.891Z,4.57
2022-09-17T10:21:32.127Z,3.03
2022-09-17T10:24:31.118Z,5.47
2022-09-17T10:27:19.180Z,4.03
2022-09-17T10:30:17.634Z,3.15
2022-09-17T10:33:17.498Z,2.97
2022-09-17T10:36:16.319Z,2.30
2022-09-17T10:39:27.155Z,2.08
2022-09-17T10:42:15.839Z,3.40
2022-09-17T10:45:01.548Z,3.25
2022-09-17T10:47:47.112Z,4.95
2022-09-17T10:50:35.471Z,1.25
2022-09-17T10:53:24.499Z,3.38
2022-09-17T10:56:29.615Z,6.00
2022-09-17T10:59:33.573Z,2.22
2022-09-17T11:02:46.814Z,2.60
2022-09-17T11:05:51.244Z,2.90
2022-09-17T11:08:48.604Z,2.22
2022-09-17T11:11:34.113Z,2.88
2022-09-17T11:14:47.869Z,2.92
2022-09-17T11:17:42.154Z,2.90
2022-09-17T11:20:30.319Z,3.60
2022-09-17T11:23:53.124Z,5.18
2022-09-17T11:26:56.878Z,2.75
2022-09-17T11:29:47.949Z,2.10
2022-09-17T11:33:05.296Z,3.90
2022-09-17T11:36:00.209Z,5.15
2022-09-17T11:38:49.943Z,0.85
2022-09-17T11:41:43.839Z,5.82
2022-09-17T11:44:41.169Z,3.67
2022-09-17T11:47:41.352Z,4.50
2022-09-17T11:50:54.414Z,2.30
2022-09-17T11:54:08.886Z,2.42
2022-09-17T11:57:09.581Z,2.38
2022-09-17T12:00:08.673Z,2.70
2022-09-17T12:03:26.279Z,2.00
2022-09-17T12:06:38.468Z,3.10
2022-09-17T12:09:28.717Z,2.87
2022-09-17T12:12:44.912Z,0.85
2022-09-17T12:15:28.110Z,2.95
2022-09-17T12:18:51.341Z,1.55
2022-09-17T12:21:50.040Z,4.05
2022-09-17T12:24:35.538Z,3.63
2022-09-17T12:27:33.161Z,1.13
2022-09-17T12:30:34.548Z,3.65
2022-09-17T12:33:42.612Z,2.13
2022-09-17T12:36:50.201Z,3.22
2022-09-17T12:39:43.970Z,2.90
2022-09-17T12:42:38.300Z,1.10
2022-09-17T12:45:50.633Z,4.97
2022-09-17T12:48:45.708Z,2.38
2022-09-17T12:51:50.113Z,3.47
2022-09-17T12:54:54.381Z,3.40
2022-09-17T12:57:59.634Z,2.13
2022-09-17T13:00:51.024Z,2.95
2022-09-17T13:03:56.264Z,3.40
2022-09-17T13:06:56.788Z,4.28
2022-09-17T13:10:12.095Z,2.83
2022-09-17T13:13:03.986Z,3.90
2022-09-17T13:16:06.086Z,1.75
2022-09-17T13:19:35.758Z,2.90
2022-09-17T13:22:26.399Z,3.83
2022-09-17T13:25:14.395Z,2.42
2022-09-17T13:28:11.318Z,4.43
2022-09-17T13:31:01.731Z,1.88
2022-09-17T13:33:53.725Z,2.45
2022-09-17T13:36:50.211Z,3.15
2022-09-17T13:39:46.158Z,3.88
2022-09-17T13:42:47.231Z,1.42
2022-09-17T13:45:33.894Z,4.07
2022-09-17T13:48:23.235Z,4.47
2022-09-17T13:51:38.361Z,6.22
2022-09-17T13:54:35.533Z,4.97
2022-09-17T13:57:21.318Z,3.55
2022-09-17T14:00:07.633Z,4.43
2022-09-17T14:02:53.235Z,1.98
2022-09-17T14:05:39.159Z,4.60
2022-09-17T14:08:54.631Z,2.90
2022-09-17T14:11:40.122Z,2.65
2022-09-17T14:14:28.623Z,3.20
2022-09-17T14:17:51.085Z,3.05
2022-09-17T14:20:36.650Z,1.67
2022-09-17T14:23:22.283Z,1.67
2022-09-17T14:26:16.130Z,2.80
2022-09-17T14:29:27.761Z,2.60
2022-09-17T14:32:42.286Z,1.98
2022-09-17T14:35:51.931Z,2.55
2022-09-17T14:38:44.481Z,4.95
2022-09-17T14:41:35.698Z,3.03
2022-09-17T14:44:24.290Z,4.18
2022-09-17T14:47:17.816Z,3.88
2022-09-17T14:50:23.504Z,3.92
2022-09-17T14:53:17.118Z,1.55
2022-09-17T14:56:02.509Z,2.15
2022-09-17T14:58:54.501Z,2.17
2022-09-17T15:01:46.495Z,4.15
2022-09-17T15:04:32.359Z,4.32
2022-09-17T15:07:22.132Z,4.05
2022-09-17T15:10:12.809Z,7.07
2022-09-17T15:12:58.557Z,2.95
2022-09-17T15:16:14.357Z,2.05
2022-09-17T15:19:03.671Z,4.85
2022-09-17T15:21:51.620Z,3.20
2022-09-17T15:24:47.476Z,3.53
2022-09-17T15:27:39.387Z,4.50
2022-09-17T15:30:26.305Z,2.20
2022-09-17T15:33:13.343Z,6.78
2022-09-17T15:36:00.091Z,5.43
2022-09-17T15:38:45.929Z,2.75
2022-09-17T15:41:35.826Z,2.38
2022-09-17T15:44:32.086Z,3.35
2022-09-17T15:47:54.959Z,3.70
2022-09-17T15:51:15.070Z,5.63
2022-09-17T15:54:06.961Z,2.90
2022-09-17T15:56:57.707Z,2.25
2022-09-17T15:59:43.359Z,5.13
2022-09-17T16:02:31.518Z,2.45
2022-09-17T16:05:16.879Z,1.45
2022-09-17T16:08:23.398Z,3.38
2022-09-17T16:11:09.403Z,3.05
2022-09-17T16:13:56.149Z,2.53
2022-09-17T16:16:41.894Z,3.08
2022-09-17T16:19:27.301Z,1.75
2022-09-17T16:22:12.776Z,2.17
2022-09-17T16:24:58.422Z,4.20
2022-09-17T16:28:08.629Z,2.83
2022-09-17T16:30:54.046Z,3.50
2022-09-17T16:33:39.722Z,4.68
2022-09-17T16:36:25.417Z,4.35
2022-09-17T16:39:10.956Z,2.80
2022-09-17T16:41:56.391Z,2.72
2022-09-17T16:44:42.018Z,5.10
2022-09-17T16:47:27.366Z,3.22
2022-09-17T16:50:15.478Z,5.70
2022-09-17T16:53:04.917Z,5.60
2022-09-17T16:55:50.871Z,5.32
2022-09-17T16:58:36.890Z,1.83
2022-09-17T17:01:22.943Z,3.63
2022-09-17T17:04:08.607Z,6.78
2022-09-17T17:06:54.734Z,9.10
2022-09-17T17:09:40.132Z,5.53
2022-09-17T17:12:26.226Z,6.72
2022-09-17T17:15:11.891Z,7.57
2022-09-17T17:17:58.000Z,7.60
2022-09-17T17:20:43.186Z,5.72
2022-09-17T17:23:28.955Z,3.15
2022-09-17T17:26:15.849Z,6.05
2022-09-17T17:29:03.012Z,3.75
2022-09-17T17:31:49.501Z,9.77
2022-09-17T17:34:34.890Z,5.43
2022-09-17T17:37:23.211Z,5.60
2022-09-17T17:40:10.211Z,5.40
2022-09-17T17:42:55.587Z,4.20
2022-09-17T17:45:41.318Z,2.63
2022-09-17T17:48:26.860Z,2.78
2022-09-17T17:51:12.672Z,4.00
2022-09-17T17:53:57.896Z,3.67
2022-09-17T17:56:43.402Z,2.75
2022-09-17T17:59:28.986Z,13.75
2022-09-17T18:02:14.673Z,4.30
2022-09-17T18:05:04.158Z,2.45
2022-09-17T18:07:50.297Z,2.13
2022-09-17T18:10:35.626Z,3.20
2022-09-17T18:13:21.941Z,2.90
2022-09-17T18:16:11.014Z,3.78
2022-09-17T18:18:58.373Z,5.35
2022-09-17T18:21:43.579Z,5.38
2022-09-17T18:24:29.074Z,6.80
2022-09-17T18:27:15.424Z,3.90
2022-09-17T18:30:00.939Z,4.10
2022-09-17T18:32:48.986Z,6.25
2022-09-17T18:35:37.383Z,3.10
2022-09-17T18:38:24.246Z,4.75
2022-09-17T18:41:12.398Z,4.45
2022-09-17T18:44:00.300Z,4.25
2022-09-17T18:46:47.908Z,8.05
2022-09-17T18:49:33.596Z,6.15
2022-09-17T18:52:19.570Z,9.27
2022-09-17T18:55:04.989Z,7.65
2022-09-17T18:57:51.410Z,14.07
2022-09-17T19:00:40.816Z,13.93
2022-09-17T19:03:26.062Z,10.63
2022-09-17T19:06:13.868Z,14.40
2022-09-17T19:09:01.469Z,33.65
2022-09-17T19:11:47.063Z,36.90
2022-09-17T19:14:32.838Z,27.88
2022-09-17T19:17:18.265Z,18.02
2022-09-17T19:20:03.926Z,15.20
2022-09-17T19:22:50.062Z,14.70
2022-09-17T19:25:36.771Z,12.18
2022-09-17T19:28:23.112Z,14.13
2022-09-17T19:31:16.435Z,15.93
2022-09-17T19:34:02.526Z,12.90
2022-09-17T19:36:48.179Z,12.85
2022-09-17T19:39:34.141Z,9.57
2022-09-17T19:42:20.477Z,8.95
2022-09-17T19:45:06.130Z,9.40
2022-09-17T19:47:56.240Z,12.88
2022-09-17T19:50:51.524Z,14.68
2022-09-17T19:53:36.998Z,13.18
2022-09-17T19:56:25.471Z,12.23
2022-09-17T19:59:11.414Z,13.25
2022-09-17T20:01:57.102Z,11.20
2022-09-17T20:04:42.635Z,11.73
2022-09-17T20:07:30.069Z,12.00
2022-09-17T20:10:15.727Z,7.68
2022-09-17T20:13:01.771Z,11.95
2022-09-17T20:15:47.661Z,10.25
2022-09-17T20:18:34.758Z,10.00
2022-09-17T20:21:27.905Z,7.78
2022-09-17T20:24:14.046Z,9.90
2022-09-17T20:26:59.461Z,8.95
2022-09-17T20:29:44.962Z,9.15
2022-09-17T20:32:30.439Z,16.60
2022-09-17T20:35:16.081Z,11.23
2022-09-17T20:39:06.766Z,9.93
2022-09-17T20:41:10.525Z,11.43
2022-09-17T20:43:55.787Z,10.95
2022-09-17T20:46:41.409Z,9.43
2022-09-17T20:49:27.431Z,9.68
2022-09-17T20:52:12.559Z,9.02
2022-09-17T20:54:58.187Z,11.18
2022-09-17T20:57:44.640Z,13.82
2022-09-17T21:00:30.546Z,14.75
2022-09-17T21:03:16.235Z,15.35
2022-09-17T21:06:01.583Z,12.77
2022-09-17T21:08:47.897Z,11.68
2022-09-17T21:11:34.476Z,9.90
2022-09-17T21:14:20.595Z,15.15
2022-09-17T21:17:06.145Z,13.93
2022-09-17T21:19:52.570Z,14.00
2022-09-17T21:22:37.905Z,12.02
2022-09-17T21:25:24.165Z,13.40
2022-09-17T21:28:09.825Z,15.25
2022-09-17T21:31:07.424Z,15.82
2022-09-17T21:33:56.680Z,18.40
2022-09-17T21:36:44.586Z,18.10
2022-09-17T21:39:30.423Z,15.93
2022-09-17T21:42:15.701Z,12.73
2022-09-17T21:45:01.343Z,12.52
2022-09-17T21:47:47.428Z,13.23
2022-09-17T21:50:32.840Z,13.90
2022-09-17T21:53:18.499Z,13.65
2022-09-17T21:56:05.915Z,15.38
2022-09-17T21:58:54.839Z,13.60
2022-09-17T22:01:46.819Z,12.75
2022-09-17T22:04:32.512Z,13.32
2022-09-17T22:07:18.238Z,12.55
2022-09-17T22:10:03.627Z,10.85
2022-09-17T22:12:49.354Z,10.55
2022-09-17T22:15:34.880Z,11.65
2022-09-17T22:18:20.423Z,12.40
2022-09-17T22:21:14.422Z,11.98
2022-09-17T22:24:01.870Z,13.18
2022-09-17T22:26:52.981Z,12.82
2022-09-17T22:29:42.596Z,12.10
2022-09-17T22:32:28.760Z,12.18
2022-09-17T22:35:14.145Z,11.25
2022-09-17T22:37:59.686Z,12.20
2022-09-17T22:40:45.298Z,11.45
2022-09-17T22:43:31.147Z,12.55
2022-09-17T22:46:18.696Z,9.82
2022-09-17T22:49:04.242Z,6.47
2022-09-17T22:51:49.750Z,11.07
2022-09-17T22:54:35.033Z,11.90
2022-09-17T22:57:20.496Z,7.55
2022-09-17T23:00:07.883Z,8.95
2022-09-17T23:02:53.395Z,9.88
2022-09-17T23:05:38.883Z,14.07
2022-09-17T23:08:24.312Z,10.45
2022-09-17T23:11:17.482Z,10.07
2022-09-17T23:14:05.862Z,10.07
2022-09-17T23:16:51.212Z,8.45
2022-09-17T23:19:36.916Z,11.15
2022-09-17T23:22:23.165Z,16.02
2022-09-17T23:25:09.003Z,14.20
2022-09-17T23:27:58.548Z,10.75
2022-09-17T23:30:44.176Z,10.98
2022-09-17T23:33:29.567Z,11.13
2022-09-17T23:36:19.309Z,12.40
2022-09-17T23:39:06.578Z,12.02
2022-09-17T23:41:51.991Z,11.98
2022-09-17T23:44:37.342Z,9.57
2022-09-17T23:47:22.889Z,14.70
2022-09-17T23:50:11.224Z,11.82
2022-09-17T23:52:56.496Z,13.75
2022-09-17T23:55:49.361Z,10.80
2022-09-17T23:58:34.721Z,10.02
